Time;durP1;ratioP1;P1;durP2;ratioP2;P2;SDS_P1;SDS_P2;PMS_P1;PMS_P2;Temp;Humidity;BMP_temperature;BMP_pressure;BME280_temperature;BME280_humidity;BME280_pressure;Samples;Min_cycle;Max_cycle;Signal;HPM_P1;HPM_P2
2022/05/24 00:01:24;;;;;;;0.73;0.30;;;16.80;99.90;;;;;;5095266;28;21023;-88
2022/05/24 00:03:51;;;;;;;0.37;0.30;;;16.80;99.90;;;;;;5095885;28;20432;-88
2022/05/24 00:06:19;;;;;;;0.40;0.37;;;16.90;99.90;;;;;;5095827;28;20452;-88
2022/05/24 00:08:46;;;;;;;0.30;0.30;;;16.90;99.90;;;;;;5095578;28;21002;-88
2022/05/24 00:11:13;;;;;;;0.30;0.30;;;16.90;99.90;;;;;;5095422;28;20471;-87
2022/05/24 00:13:40;;;;;;;0.30;0.30;;;16.80;99.90;;;;;;5095460;28;20452;-87
2022/05/24 00:16:07;;;;;;;0.30;0.30;;;16.80;99.90;;;;;;5095550;28;20437;-87
2022/05/24 00:18:35;;;;;;;0.30;0.20;;;16.70;99.90;;;;;;5095137;28;20452;-87
2022/05/24 00:21:04;;;;;;;0.40;0.40;;;16.60;99.90;;;;;;5094929;28;20919;-87
2022/05/24 00:23:33;;;;;;;0.30;0.30;;;16.60;99.90;;;;;;5094860;28;20969;-87
2022/05/24 00:26:02;;;;;;;0.30;0.30;;;16.50;99.90;;;;;;5095116;28;20452;-87
2022/05/24 00:28:31;;;;;;;1.03;0.30;;;16.50;99.90;;;;;;5094775;28;20483;-86
2022/05/24 00:30:59;;;;;;;0.40;0.30;;;16.40;99.90;;;;;;5095246;28;20460;-87
2022/05/24 00:33:27;;;;;;;0.30;0.30;;;16.40;99.90;;;;;;5095105;28;20459;-86
2022/05/24 00:35:54;;;;;;;0.30;0.30;;;16.40;99.90;;;;;;5094828;28;20515;-87
2022/05/24 00:38:26;;;;;;;1.50;0.40;;;16.40;99.90;;;;;;5095023;28;20450;-87
2022/05/24 00:41:04;;;;;;;1.03;0.30;;;16.40;99.90;;;;;;5094538;28;20494;-87
2022/05/24 00:43:34;;;;;;;0.30;0.30;;;16.40;99.90;;;;;;5094884;28;20424;-86
2022/05/24 00:46:04;;;;;;;0.43;0.33;;;16.40;99.90;;;;;;5094766;28;20448;-86
2022/05/24 00:48:35;;;;;;;0.60;0.60;;;16.40;99.90;;;;;;5094782;28;20464;-86
2022/05/24 00:51:03;;;;;;;0.40;0.30;;;16.30;99.90;;;;;;5094651;28;20765;-86
2022/05/24 00:53:35;;;;;;;0.40;0.30;;;16.30;99.90;;;;;;5094586;28;20478;-86
2022/05/24 00:56:07;;;;;;;0.40;0.40;;;16.20;99.90;;;;;;5094579;28;20436;-86
2022/05/24 00:58:41;;;;;;;0.30;0.30;;;16.20;99.90;;;;;;5094411;28;20440;-86
2022/05/24 01:01:28;;;;;;;0.30;0.30;;;16.20;99.90;;;;;;5094415;28;20471;-86
2022/05/24 01:03:55;;;;;;;0.40;0.30;;;16.20;99.90;;;;;;5094101;28;20947;-86
2022/05/24 01:06:22;;;;;;;0.30;0.30;;;16.10;99.90;;;;;;5094357;28;20825;-86
2022/05/24 01:08:49;;;;;;;0.30;0.20;;;16.10;99.90;;;;;;5094184;28;20491;-86
2022/05/24 01:11:19;;;;;;;0.30;0.20;;;16.10;99.90;;;;;;5094109;28;20464;-86
2022/05/24 01:13:46;;;;;;;0.30;0.30;;;16.10;99.90;;;;;;5094095;28;20564;-86
2022/05/24 01:16:14;;;;;;;0.30;0.20;;;16.10;99.90;;;;;;5094054;28;20790;-85
2022/05/24 01:18:41;;;;;;;0.37;0.30;;;16.00;99.90;;;;;;5093726;28;20958;-85
2022/05/24 01:21:12;;;;;;;0.87;0.60;;;16.00;99.90;;;;;;5094184;28;20954;-86
2022/05/24 01:23:58;;;;;;;0.30;0.30;;;16.00;99.90;;;;;;5094016;28;20432;-85
2022/05/24 01:26:35;;;;;;;0.30;0.30;;;16.00;99.90;;;;;;5094669;28;20444;-86
2022/05/24 01:29:06;;;;;;;0.83;0.53;;;16.00;99.90;;;;;;5093879;28;20472;-86
2022/05/24 01:36:59;;;;;;;0.30;0.30;;;15.90;99.90;;;;;;5093415;28;20431;-86
2022/05/24 01:39:26;;;;;;;0.30;0.30;;;16.00;99.90;;;;;;5093733;28;20444;-86
2022/05/24 01:41:54;;;;;;;0.30;0.30;;;15.90;99.90;;;;;;5093138;28;21037;-86
2022/05/24 01:44:26;;;;;;;0.30;0.30;;;15.90;99.90;;;;;;5093572;28;20463;-86
2022/05/24 01:46:54;;;;;;;0.50;0.30;;;15.80;99.90;;;;;;5093534;28;20447;-85
2022/05/24 01:49:25;;;;;;;0.40;0.30;;;15.80;99.90;;;;;;5093235;28;20515;-86
2022/05/24 01:51:57;;;;;;;0.30;0.30;;;15.70;99.90;;;;;;5093272;28;21001;-85
2022/05/24 01:54:24;;;;;;;0.50;0.37;;;15.60;99.90;;;;;;5093294;28;20428;-86
2022/05/24 01:56:57;;;;;;;0.30;0.30;;;15.60;99.90;;;;;;5098000;28;20805;-86
2022/05/24 01:59:26;;;;;;;0.30;0.30;;;15.60;99.90;;;;;;5100340;28;20424;-86
2022/05/24 02:01:55;;;;;;;0.40;0.30;;;15.50;99.90;;;;;;5100300;28;20463;-86
2022/05/24 02:04:24;;;;;;;0.30;0.30;;;15.50;99.90;;;;;;5100151;28;20811;-86
2022/05/24 02:07:02;;;;;;;0.30;0.30;;;15.50;99.90;;;;;;5099997;28;20436;-86
2022/05/24 02:09:29;;;;;;;0.40;0.30;;;15.50;99.90;;;;;;5100019;28;20554;-86
2022/05/24 02:12:01;;;;;;;0.30;0.30;;;15.50;99.90;;;;;;5100141;28;20467;-86
2022/05/24 02:14:32;;;;;;;0.40;0.33;;;15.50;99.90;;;;;;5099898;28;20915;-86
2022/05/24 02:17:04;;;;;;;0.30;0.30;;;15.50;99.90;;;;;;5099984;28;20777;-86
2022/05/24 02:19:35;;;;;;;0.30;0.30;;;15.50;99.90;;;;;;5100112;28;20839;-86
2022/05/24 02:22:07;;;;;;;0.30;0.20;;;15.50;99.90;;;;;;5099971;28;20478;-85
2022/05/24 02:24:34;;;;;;;0.57;0.43;;;15.40;99.90;;;;;;5099798;28;20413;-86
2022/05/24 02:27:03;;;;;;;0.30;0.30;;;15.40;99.90;;;;;;5099951;28;20448;-86
2022/05/24 02:29:31;;;;;;;0.30;0.30;;;15.50;99.90;;;;;;5100002;28;20989;-86
2022/05/24 02:31:58;;;;;;;0.40;0.30;;;15.50;99.90;;;;;;5099923;28;20507;-86
2022/05/24 02:34:25;;;;;;;0.30;0.30;;;15.40;99.90;;;;;;5100036;28;20447;-86
2022/05/24 02:36:52;;;;;;;0.40;0.30;;;15.50;99.90;;;;;;5099777;28;20416;-86
2022/05/24 02:39:18;;;;;;;0.40;0.30;;;15.50;99.90;;;;;;5099704;28;20442;-86
2022/05/24 02:41:44;;;;;;;0.30;0.30;;;15.40;99.90;;;;;;5099357;28;20490;-86
2022/05/24 02:44:15;;;;;;;0.30;0.30;;;15.50;99.90;;;;;;5099887;28;20435;-86
2022/05/24 02:46:43;;;;;;;0.40;0.40;;;15.50;99.90;;;;;;5099857;28;20212;-86
2022/05/24 02:49:10;;;;;;;0.30;0.20;;;15.50;99.90;;;;;;5099503;28;20486;-86
2022/05/24 02:51:38;;;;;;;0.40;0.30;;;15.50;99.90;;;;;;5099661;28;20443;-86
2022/05/24 02:54:05;;;;;;;0.40;0.40;;;15.50;99.90;;;;;;5099864;28;20871;-86
2022/05/24 02:56:32;;;;;;;0.30;0.20;;;15.50;99.90;;;;;;5099786;28;20816;-86
2022/05/24 02:59:00;;;;;;;0.40;0.40;;;15.50;99.90;;;;;;5099766;28;20474;-86
2022/05/24 03:01:29;;;;;;;0.30;0.27;;;15.50;99.90;;;;;;5099800;28;20460;-86
2022/05/24 03:03:57;;;;;;;0.30;0.30;;;15.50;99.90;;;;;;5099650;28;20451;-86
2022/05/24 03:06:25;;;;;;;0.67;0.40;;;15.50;99.90;;;;;;5099775;28;20462;-86
2022/05/24 03:14:18;;;;;;;0.40;0.30;;;15.40;99.90;;;;;;5095251;28;20416;-86
2022/05/24 03:16:52;;;;;;;0.40;0.33;;;15.50;99.90;;;;;;5096850;28;20440;-86
2022/05/24 03:19:19;;;;;;;0.30;0.30;;;15.50;99.90;;;;;;5096584;28;20511;-86
2022/05/24 03:21:46;;;;;;;0.30;0.30;;;15.50;99.90;;;;;;5096334;28;20468;-86
2022/05/24 03:24:13;;;;;;;0.30;0.30;;;15.40;99.90;;;;;;5096412;28;20465;-86
2022/05/24 03:26:39;;;;;;;0.30;0.30;;;15.50;99.90;;;;;;5096187;28;20466;-86
2022/05/24 03:29:06;;;;;;;0.40;0.40;;;15.50;99.90;;;;;;5096195;28;20502;-86
2022/05/24 03:31:33;;;;;;;0.50;0.40;;;15.50;99.90;;;;;;5095995;28;20495;-86
2022/05/24 03:34:01;;;;;;;0.30;0.30;;;15.50;99.90;;;;;;5095827;28;20475;-86
2022/05/24 03:36:28;;;;;;;0.40;0.30;;;15.50;99.90;;;;;;5096030;28;20455;-86
2022/05/24 03:38:55;;;;;;;0.30;0.30;;;15.50;99.90;;;;;;5095876;28;20807;-86
2022/05/24 03:41:22;;;;;;;0.30;0.30;;;15.50;99.90;;;;;;5095509;28;20487;-86
2022/05/24 03:43:49;;;;;;;0.30;0.30;;;15.50;99.90;;;;;;5095580;28;20425;-86
2022/05/24 03:46:16;;;;;;;0.40;0.30;;;15.50;99.90;;;;;;5095553;28;20451;-86
2022/05/24 03:48:42;;;;;;;0.40;0.40;;;15.50;99.90;;;;;;5095802;28;20448;-86
2022/05/24 03:51:10;;;;;;;0.40;0.30;;;15.40;99.90;;;;;;5095615;28;20474;-86
2022/05/24 03:53:37;;;;;;;0.40;0.33;;;15.50;99.90;;;;;;5095472;28;20803;-86
2022/05/24 03:56:05;;;;;;;0.30;0.30;;;15.50;99.90;;;;;;5096236;28;20439;-86
2022/05/24 03:58:32;;;;;;;0.30;0.30;;;15.50;99.90;;;;;;5095571;28;20448;-86
2022/05/24 04:00:59;;;;;;;0.30;0.30;;;15.50;99.90;;;;;;5095266;28;20448;-87
2022/05/24 04:03:26;;;;;;;0.30;0.30;;;15.40;99.90;;;;;;5095450;28;20443;-87
2022/05/24 04:05:53;;;;;;;0.40;0.30;;;15.40;99.90;;;;;;5095178;28;20521;-86
2022/05/24 04:08:26;;;;;;;0.30;0.30;;;15.40;99.90;;;;;;5095437;28;20451;-86
2022/05/24 04:11:00;;;;;;;0.40;0.30;;;15.40;99.90;;;;;;5095134;28;20600;-86
2022/05/24 04:13:27;;;;;;;0.40;0.30;;;15.40;99.90;;;;;;5095061;28;20440;-86
2022/05/24 04:15:53;;;;;;;0.40;0.30;;;15.40;99.90;;;;;;5095128;28;20816;-86
2022/05/24 04:18:20;;;;;;;0.37;0.30;;;15.40;99.90;;;;;;5095113;28;20538;-86
2022/05/24 04:20:47;;;;;;;0.30;0.30;;;15.40;99.90;;;;;;5094514;28;20432;-86
2022/05/24 04:23:15;;;;;;;1.07;0.60;;;15.40;99.90;;;;;;5094833;28;20918;-86
2022/05/24 04:25:43;;;;;;;0.60;0.30;;;15.40;99.90;;;;;;5094878;28;20942;-86
2022/05/24 04:28:10;;;;;;;0.40;0.40;;;15.40;99.90;;;;;;5094905;28;20915;-86
2022/05/24 04:30:37;;;;;;;0.40;0.30;;;15.40;99.90;;;;;;5094979;28;20479;-86
2022/05/24 04:33:04;;;;;;;0.30;0.30;;;15.40;99.90;;;;;;5094573;28;20448;-86
2022/05/24 04:35:31;;;;;;;0.50;0.37;;;15.40;99.90;;;;;;5094686;28;20927;-86
2022/05/24 04:38:00;;;;;;;0.30;0.30;;;15.40;99.90;;;;;;5094668;28;20495;-87
2022/05/24 04:43:09;;;;;;;0.40;0.30;;;15.40;99.90;;;;;;5093295;28;20448;-86
2022/05/24 04:45:35;;;;;;;0.30;0.30;;;15.40;99.90;;;;;;5094644;28;20811;-86
2022/05/24 04:48:02;;;;;;;0.40;0.40;;;15.40;99.90;;;;;;5094563;28;20435;-87
2022/05/24 04:50:29;;;;;;;0.40;0.40;;;15.40;99.90;;;;;;5094230;28;20482;-86
2022/05/24 04:52:56;;;;;;;0.93;0.40;;;15.50;99.90;;;;;;5094247;28;20452;-87
2022/05/24 04:55:26;;;;;;;0.30;0.30;;;15.50;99.90;;;;;;5094625;28;20451;-86
2022/05/24 04:57:53;;;;;;;0.40;0.30;;;15.50;99.90;;;;;;5095262;28;20843;-86
2022/05/24 05:00:22;;;;;;;0.43;0.30;;;15.50;99.90;;;;;;5094406;28;20448;-86
2022/05/24 05:02:49;;;;;;;0.40;0.37;;;15.50;99.90;;;;;;5094334;28;20464;-86
2022/05/24 05:05:16;;;;;;;0.30;0.30;;;15.60;99.90;;;;;;5094394;28;20456;-86
2022/05/24 05:07:43;;;;;;;0.30;0.30;;;15.60;99.90;;;;;;5094187;28;20477;-86
2022/05/24 05:10:11;;;;;;;0.50;0.50;;;15.70;99.90;;;;;;5094394;28;20486;-86
2022/05/24 05:12:38;;;;;;;0.60;0.33;;;15.70;99.90;;;;;;5094163;28;20468;-87
2022/05/24 05:15:07;;;;;;;1.60;1.43;;;15.80;99.90;;;;;;5094002;28;20965;-87
2022/05/24 05:17:35;;;;;;;0.30;0.30;;;15.80;99.90;;;;;;5094154;28;20452;-86
2022/05/24 05:20:02;;;;;;;0.60;0.40;;;15.80;99.90;;;;;;5094251;28;20448;-87
2022/05/24 05:22:28;;;;;;;0.40;0.40;;;15.80;99.90;;;;;;5094583;28;20472;-86
2022/05/24 05:24:55;;;;;;;0.30;0.30;;;15.80;99.90;;;;;;5094145;28;20447;-86
2022/05/24 05:27:22;;;;;;;0.40;0.40;;;15.80;99.90;;;;;;5094219;28;20443;-87
2022/05/24 05:32:33;;;;;;;0.50;0.40;;;15.90;99.90;;;;;;5093581;28;20653;-87
2022/05/24 05:35:02;;;;;;;0.40;0.40;;;16.10;99.90;;;;;;5093798;28;20990;-87
2022/05/24 05:37:30;;;;;;;0.40;0.40;;;16.20;99.90;;;;;;5093696;28;21008;-87
2022/05/24 05:39:57;;;;;;;0.40;0.30;;;16.30;99.90;;;;;;5093738;28;20440;-87
2022/05/24 05:42:24;;;;;;;0.40;0.30;;;16.30;99.90;;;;;;5094121;28;20464;-87
2022/05/24 05:44:51;;;;;;;0.40;0.30;;;16.40;99.90;;;;;;5094041;28;20490;-87
2022/05/24 05:47:19;;;;;;;0.43;0.40;;;16.50;99.90;;;;;;5093867;28;20432;-87
2022/05/24 05:49:46;;;;;;;0.30;0.30;;;16.50;99.90;;;;;;5106549;28;20491;-88
2022/05/24 05:52:14;;;;;;;0.40;0.40;;;16.60;99.90;;;;;;5109188;28;20495;-86
2022/05/24 05:54:41;;;;;;;0.60;0.50;;;16.70;99.90;;;;;;5107305;28;20443;-86
2022/05/24 05:57:08;;;;;;;0.83;0.40;;;16.80;99.90;;;;;;5104284;28;20448;-86
2022/05/24 05:59:35;;;;;;;0.50;0.40;;;16.90;99.90;;;;;;5093708;28;20491;-87
2022/05/24 06:02:05;;;;;;;0.40;0.40;;;17.00;99.90;;;;;;5093427;28;20978;-87
2022/05/24 06:04:33;;;;;;;3.80;0.40;;;17.00;99.90;;;;;;5093673;28;20543;-87
2022/05/24 06:07:00;;;;;;;0.43;0.40;;;17.00;99.90;;;;;;5093805;28;20481;-87
2022/05/24 06:09:28;;;;;;;0.50;0.40;;;17.00;99.90;;;;;;5093742;28;20459;-87
2022/05/24 06:11:56;;;;;;;0.67;0.40;;;17.10;99.90;;;;;;5093915;28;20467;-86
2022/05/24 06:14:22;;;;;;;0.40;0.30;;;17.10;99.90;;;;;;5094308;28;20448;-87
2022/05/24 06:16:49;;;;;;;0.40;0.40;;;17.20;99.90;;;;;;5093693;28;20667;-88
2022/05/24 06:19:16;;;;;;;0.30;0.30;;;17.40;99.90;;;;;;5093492;28;20899;-85
2022/05/24 06:21:43;;;;;;;0.40;0.40;;;17.40;99.90;;;;;;5093331;28;20467;-85
2022/05/24 06:24:10;;;;;;;0.93;0.50;;;17.40;99.90;;;;;;5093376;28;20463;-85
2022/05/24 06:26:38;;;;;;;0.50;0.47;;;17.40;99.90;;;;;;5093342;28;20429;-85
2022/05/24 06:29:06;;;;;;;0.40;0.40;;;17.40;99.90;;;;;;5093304;28;20448;-85
2022/05/24 06:31:33;;;;;;;0.40;0.30;;;17.40;99.90;;;;;;5093224;28;20506;-85
2022/05/24 06:34:00;;;;;;;0.40;0.40;;;17.40;99.90;;;;;;5093377;28;20550;-85
2022/05/24 06:36:26;;;;;;;0.50;0.50;;;17.50;99.90;;;;;;5093293;28;20432;-85
2022/05/24 06:38:53;;;;;;;0.40;0.40;;;17.60;99.90;;;;;;5093430;28;20471;-85
2022/05/24 06:41:20;;;;;;;0.73;0.60;;;17.60;99.90;;;;;;5092762;28;20484;-85
2022/05/24 06:43:48;;;;;;;0.40;0.40;;;17.70;99.90;;;;;;5096881;28;20447;-85
2022/05/24 06:46:15;;;;;;;0.50;0.37;;;17.90;99.90;;;;;;5096816;28;20428;-85
2022/05/24 06:48:43;;;;;;;0.90;0.90;;;18.00;99.90;;;;;;5096614;28;20458;-85
2022/05/24 06:51:11;;;;;;;0.30;0.30;;;17.90;99.90;;;;;;5096721;28;20537;-86
2022/05/24 06:53:39;;;;;;;0.37;0.33;;;17.80;99.90;;;;;;5096903;28;20466;-86
2022/05/24 06:56:07;;;;;;;0.40;0.40;;;17.70;99.90;;;;;;5096841;28;20436;-87
2022/05/24 06:58:35;;;;;;;0.30;0.30;;;17.60;99.90;;;;;;5096733;28;20448;-86
2022/05/24 07:03:48;;;;;;;0.40;0.40;;;17.40;99.90;;;;;;5096625;28;20514;-86
2022/05/24 07:06:16;;;;;;;0.40;0.30;;;17.20;99.90;;;;;;5097135;28;20485;-87
2022/05/24 07:08:43;;;;;;;0.40;0.30;;;17.10;99.90;;;;;;5096485;28;20451;-83
2022/05/24 07:11:11;;;;;;;0.30;0.30;;;16.90;99.90;;;;;;5095947;28;20475;-84
2022/05/24 07:13:39;;;;;;;0.30;0.20;;;16.10;99.90;;;;;;5096363;28;20851;-84
2022/05/24 07:16:08;;;;;;;0.30;0.30;;;15.30;99.90;;;;;;5095944;28;20942;-84
2022/05/24 07:18:35;;;;;;;0.60;0.37;;;14.70;99.90;;;;;;5095991;28;20940;-85
2022/05/24 07:21:02;;;;;;;0.30;0.20;;;14.40;99.90;;;;;;5096287;28;20455;-84
2022/05/24 07:23:29;;;;;;;0.40;0.30;;;14.10;99.90;;;;;;5096146;28;20479;-85
2022/05/24 07:26:08;;;;;;;0.50;0.50;;;14.00;99.90;;;;;;5096107;28;20436;-84
2022/05/24 07:28:36;;;;;;;0.30;0.20;;;13.90;99.90;;;;;;5096092;28;20420;-85
2022/05/24 07:31:03;;;;;;;0.30;0.20;;;13.80;99.90;;;;;;5095731;28;20507;-82
2022/05/24 07:33:32;;;;;;;0.30;0.20;;;13.80;99.90;;;;;;5095717;28;20428;-82
2022/05/24 07:35:58;;;;;;;1.43;0.30;;;13.80;99.90;;;;;;5095698;28;20944;-82
2022/05/24 07:38:26;;;;;;;0.40;0.40;;;13.70;99.90;;;;;;5095648;28;20456;-85
2022/05/24 07:46:23;;;;;;;0.30;0.20;;;13.80;99.90;;;;;;5095759;28;20543;-84
2022/05/24 07:48:51;;;;;;;0.30;0.30;;;13.80;99.90;;;;;;5095118;28;20803;-82
2022/05/24 07:51:17;;;;;;;0.77;0.30;;;13.80;99.90;;;;;;5095511;28;20483;-83
2022/05/24 07:53:44;;;;;;;0.30;0.30;;;13.80;99.90;;;;;;5094545;28;20949;-84
2022/05/24 07:56:15;;;;;;;0.30;0.30;;;13.90;99.90;;;;;;5095633;28;20419;-84
2022/05/24 07:58:42;;;;;;;0.30;0.20;;;14.10;99.90;;;;;;5096028;28;20487;-83
2022/05/24 08:01:10;;;;;;;0.87;0.40;;;14.30;99.90;;;;;;5095247;28;21002;-83
2022/05/24 08:03:38;;;;;;;0.63;0.30;;;14.60;99.90;;;;;;5095401;28;20442;-83
2022/05/24 08:06:07;;;;;;;0.30;0.20;;;14.80;99.90;;;;;;5095306;28;20443;-83
2022/05/24 08:08:34;;;;;;;0.30;0.20;;;15.10;99.90;;;;;;5094983;28;20454;-83
2022/05/24 08:11:01;;;;;;;0.30;0.30;;;15.20;99.90;;;;;;5094749;28;20482;-83
2022/05/24 08:13:28;;;;;;;0.40;0.40;;;15.30;99.90;;;;;;5095097;28;20432;-83
2022/05/24 08:15:56;;;;;;;0.30;0.30;;;15.40;99.90;;;;;;5095039;28;20519;-83
2022/05/24 08:18:24;;;;;;;0.30;0.20;;;15.30;99.90;;;;;;5095016;28;20505;-83
2022/05/24 08:20:52;;;;;;;0.30;0.20;;;15.30;99.90;;;;;;5094570;28;20497;-83
2022/05/24 08:23:21;;;;;;;0.30;0.30;;;15.20;99.90;;;;;;5095030;28;20444;-83
2022/05/24 08:25:47;;;;;;;0.30;0.20;;;15.20;99.90;;;;;;5094842;28;21015;-83
2022/05/24 08:28:14;;;;;;;0.30;0.20;;;15.30;99.90;;;;;;5094673;28;21030;-83
2022/05/24 08:30:41;;;;;;;0.30;0.30;;;15.40;99.90;;;;;;5094583;28;20558;-83
2022/05/24 08:33:10;;;;;;;0.30;0.30;;;15.40;99.90;;;;;;5094622;28;20468;-83
2022/05/24 08:35:39;;;;;;;0.30;0.20;;;15.50;99.90;;;;;;5094729;28;20428;-83
2022/05/24 08:38:07;;;;;;;0.30;0.30;;;15.60;99.90;;;;;;5094902;28;20975;-83
2022/05/24 08:40:39;;;;;;;0.30;0.20;;;15.70;99.90;;;;;;5095313;28;20521;-82
2022/05/24 08:43:19;;;;;;;0.40;0.30;;;15.80;99.90;;;;;;5094529;28;21001;-83
2022/05/24 08:48:41;;;;;;;0.30;0.20;;;15.70;99.90;;;;;;5094470;28;20408;-83
2022/05/24 08:51:14;;;;;;;0.30;0.30;;;15.60;99.90;;;;;;5094441;28;20483;-82
2022/05/24 08:53:45;;;;;;;0.30;0.20;;;15.60;99.90;;;;;;5094529;28;20443;-82
2022/05/24 08:56:19;;;;;;;0.30;0.30;;;15.60;99.90;;;;;;5094218;28;20451;-83
2022/05/24 08:58:50;;;;;;;0.40;0.30;;;15.80;99.90;;;;;;5094025;28;20448;-83
2022/05/24 09:01:23;;;;;;;0.30;0.30;;;16.00;99.90;;;;;;5094231;28;20463;-83
2022/05/24 09:03:50;;;;;;;0.40;0.30;;;16.00;99.90;;;;;;5093944;28;20959;-83
2022/05/24 09:06:32;;;;;;;0.30;0.30;;;16.10;99.90;;;;;;5092952;28;20460;-83
2022/05/24 09:09:09;;;;;;;0.30;0.30;;;16.20;99.90;;;;;;5093991;28;20857;-83
2022/05/24 09:11:46;;;;;;;0.30;0.30;;;16.40;99.90;;;;;;5094489;28;20479;-83
2022/05/24 09:14:22;;;;;;;0.40;0.30;;;16.50;99.90;;;;;;5093842;28;20415;-84
2022/05/24 09:16:59;;;;;;;0.30;0.30;;;16.50;99.90;;;;;;5094495;28;20447;-84
2022/05/24 09:19:33;;;;;;;0.40;0.30;;;16.70;99.90;;;;;;5093857;28;20447;-84
2022/05/24 09:22:01;;;;;;;0.40;0.30;;;16.70;99.90;;;;;;5093592;28;20456;-84
2022/05/24 09:24:40;;;;;;;0.50;0.30;;;16.70;99.90;;;;;;5094213;28;20467;-83
2022/05/24 09:27:12;;;;;;;0.30;0.30;;;16.80;99.90;;;;;;5093874;28;20432;-84
2022/05/24 09:29:55;;;;;;;0.30;0.30;;;16.90;99.90;;;;;;5093572;28;20922;-84
2022/05/24 09:32:28;;;;;;;0.30;0.30;;;16.90;99.90;;;;;;5093424;28;20483;-84
2022/05/24 09:35:19;;;;;;;0.30;0.30;;;16.90;99.90;;;;;;5093524;28;20915;-84
2022/05/24 09:38:03;;;;;;;0.30;0.20;;;17.00;99.90;;;;;;5093779;28;20438;-84
2022/05/24 09:40:31;;;;;;;0.30;0.30;;;16.90;99.90;;;;;;5093137;28;20991;-84
2022/05/24 09:43:17;;;;;;;0.40;0.30;;;16.80;99.90;;;;;;5093456;28;20476;-84
2022/05/24 09:45:47;;;;;;;0.40;0.40;;;16.90;99.90;;;;;;5093695;28;20439;-84
2022/05/24 09:48:24;;;;;;;0.30;0.30;;;16.90;99.90;;;;;;5093547;28;20444;-84
2022/05/24 09:50:53;;;;;;;0.30;0.30;;;17.00;99.90;;;;;;5093457;28;20566;-84
2022/05/24 09:53:23;;;;;;;0.40;0.40;;;17.20;99.90;;;;;;5093160;28;20424;-84
2022/05/24 09:55:52;;;;;;;0.40;0.30;;;17.50;99.90;;;;;;5093497;28;20497;-84
2022/05/24 09:58:28;;;;;;;0.40;0.30;;;17.70;99.90;;;;;;5093158;28;20970;-84
2022/05/24 10:00:57;;;;;;;0.30;0.30;;;18.10;99.90;;;;;;5093123;28;20787;-84
2022/05/24 10:03:28;;;;;;;0.40;0.30;;;18.30;99.90;;;;;;5093682;28;20416;-85
2022/05/24 10:06:13;;;;;;;0.50;0.30;;;18.50;99.90;;;;;;5093552;28;20446;-84
2022/05/24 10:08:44;;;;;;;0.30;0.30;;;18.60;99.90;;;;;;5094551;28;20432;-80
2022/05/24 10:11:23;;;;;;;0.30;0.30;;;18.80;99.90;;;;;;5093437;28;20568;-83
2022/05/24 10:14:11;;;;;;;0.30;0.30;;;18.80;99.90;;;;;;5093812;28;20444;-86
2022/05/24 10:16:44;;;;;;;0.30;0.30;;;18.50;99.90;;;;;;5091317;28;20943;-87
2022/05/24 10:19:38;;;;;;;1.23;0.30;;;18.30;99.90;;;;;;5097931;28;20436;-86
2022/05/24 10:22:16;;;;;;;0.30;0.30;;;18.20;99.90;;;;;;5098131;28;20838;-88
2022/05/24 10:24:56;;;;;;;1.50;0.30;;;18.30;99.90;;;;;;5097891;28;20903;-86
2022/05/24 10:27:31;;;;;;;0.40;0.30;;;18.60;99.90;;;;;;5097747;28;20432;-86
2022/05/24 10:30:07;;;;;;;0.30;0.30;;;18.70;99.90;;;;;;5097689;28;20795;-87
2022/05/24 10:38:56;;;;;;;0.40;0.30;;;19.10;99.90;;;;;;5097024;28;21025;-83
2022/05/24 10:41:27;;;;;;;0.40;0.40;;;19.10;99.90;;;;;;5096688;28;20474;-82
2022/05/24 10:44:05;;;;;;;0.60;0.40;;;19.40;99.90;;;;;;5096692;28;20417;-83
2022/05/24 10:46:42;;;;;;;0.40;0.30;;;19.70;99.90;;;;;;5096901;28;20508;-82
2022/05/24 10:49:17;;;;;;;0.50;0.40;;;19.90;99.90;;;;;;5096806;28;20497;-82
2022/05/24 10:51:48;;;;;;;0.30;0.30;;;20.00;99.90;;;;;;5096302;28;20483;-83
2022/05/24 10:54:24;;;;;;;0.40;0.40;;;20.30;99.90;;;;;;5096513;28;20436;-83
2022/05/24 10:56:56;;;;;;;0.40;0.30;;;20.50;99.90;;;;;;5096759;28;20428;-83
2022/05/24 10:59:32;;;;;;;0.57;0.30;;;20.70;99.90;;;;;;5097384;28;20497;-83
2022/05/24 11:02:10;;;;;;;0.30;0.30;;;20.70;99.90;;;;;;5096789;28;20951;-82
2022/05/24 11:04:46;;;;;;;1.77;0.30;;;20.50;99.90;;;;;;5096279;28;20890;-84
2022/05/24 11:07:17;;;;;;;0.30;0.30;;;20.40;99.90;;;;;;5096464;28;20399;-83
2022/05/24 11:09:52;;;;;;;0.30;0.30;;;20.40;99.90;;;;;;5096677;28;20424;-84
2022/05/24 11:12:23;;;;;;;0.30;0.30;;;20.70;99.90;;;;;;5096641;28;20482;-84
2022/05/24 11:14:54;;;;;;;0.40;0.40;;;20.70;99.90;;;;;;5096782;28;20435;-84
2022/05/24 11:17:22;;;;;;;0.40;0.30;;;20.60;99.90;;;;;;5096078;28;20923;-84
2022/05/24 11:19:51;;;;;;;0.37;0.30;;;20.40;99.90;;;;;;5096224;28;20438;-84
2022/05/24 11:22:26;;;;;;;0.30;0.30;;;20.10;99.90;;;;;;5096057;28;20467;-84
2022/05/24 11:24:59;;;;;;;0.30;0.30;;;20.20;99.90;;;;;;5096822;28;20450;-84
2022/05/24 11:27:31;;;;;;;0.50;0.37;;;20.20;99.90;;;;;;5096172;28;20439;-84
2022/05/24 11:30:02;;;;;;;1.43;0.40;;;20.30;99.90;;;;;;5095147;28;20446;-83
2022/05/24 11:32:38;;;;;;;0.60;0.30;;;20.30;99.90;;;;;;5095677;28;20507;-84
2022/05/24 11:35:10;;;;;;;0.30;0.30;;;20.40;99.90;;;;;;5095695;28;20433;-83
2022/05/24 11:37:39;;;;;;;0.40;0.33;;;20.50;99.90;;;;;;5095960;28;20769;-83
2022/05/24 11:40:32;;;;;;;0.47;0.27;;;20.50;99.90;;;;;;5095787;28;20939;-83
2022/05/24 11:43:00;;;;;;;0.30;0.30;;;20.50;99.90;;;;;;5095857;28;20463;-83
2022/05/24 11:46:03;;;;;;;0.40;0.30;;;20.40;99.90;;;;;;5095856;28;20547;-83
2022/05/24 11:48:44;;;;;;;0.37;0.30;;;20.20;99.90;;;;;;5095386;28;20436;-83
2022/05/24 11:51:30;;;;;;;0.30;0.30;;;20.00;99.90;;;;;;5095398;28;21016;-83
2022/05/24 11:53:57;;;;;;;0.40;0.30;;;20.00;99.90;;;;;;5095726;28;20431;-84
2022/05/24 11:56:24;;;;;;;0.50;0.40;;;19.80;99.90;;;;;;5095593;28;20531;-83
2022/05/24 11:58:58;;;;;;;0.30;0.30;;;19.70;99.90;;;;;;5095397;28;20436;-83
2022/05/24 12:01:50;;;;;;;0.40;0.30;;;19.60;99.90;;;;;;5095454;28;20479;-83
2022/05/24 12:10:50;;;;;;;0.50;0.30;;;19.20;99.90;;;;;;5099633;28;20934;-83
2022/05/24 12:13:56;;;;;;;1.00;0.50;;;19.20;99.90;;;;;;5099690;28;20530;-83
2022/05/24 12:16:37;;;;;;;0.40;0.30;;;19.20;99.90;;;;;;5104143;28;20424;-84
2022/05/24 12:19:06;;;;;;;0.40;0.30;;;19.30;99.90;;;;;;5104518;28;20436;-83
2022/05/24 12:22:00;;;;;;;0.37;0.30;;;19.40;99.90;;;;;;5095503;28;20472;-84
2022/05/24 12:24:55;;;;;;;0.40;0.30;;;19.50;99.90;;;;;;5095123;28;20455;-84
2022/05/24 12:27:44;;;;;;;0.40;0.30;;;19.60;99.90;;;;;;5094980;28;20435;-84
2022/05/24 12:30:24;;;;;;;0.47;0.40;;;19.50;99.90;;;;;;5094909;28;20464;-84
2022/05/24 12:32:52;;;;;;;0.40;0.30;;;19.40;99.90;;;;;;5094591;28;20483;-84
2022/05/24 12:35:21;;;;;;;0.30;0.30;;;19.60;99.90;;;;;;5094746;28;20521;-84
2022/05/24 12:37:52;;;;;;;0.30;0.30;;;19.70;99.90;;;;;;5094240;28;20428;-84
2022/05/24 12:40:21;;;;;;;0.40;0.30;;;19.80;99.90;;;;;;5094300;28;20487;-84
2022/05/24 12:42:49;;;;;;;0.30;0.30;;;19.80;99.90;;;;;;5094591;28;20460;-84
2022/05/24 12:45:23;;;;;;;0.30;0.30;;;19.80;99.90;;;;;;5094230;28;20781;-84
2022/05/24 12:47:52;;;;;;;0.30;0.30;;;19.70;99.90;;;;;;5094178;28;20485;-84
2022/05/24 12:50:25;;;;;;;0.40;0.30;;;19.50;99.90;;;;;;5094387;28;20440;-84
2022/05/24 12:53:02;;;;;;;4.93;0.40;;;19.50;99.90;;;;;;5094189;28;20482;-84
2022/05/24 12:58:24;;;;;;;0.70;0.53;;;19.30;99.60;;;;;;5094215;28;20905;-85
2022/05/24 13:00:51;;;;;;;0.40;0.30;;;19.20;99.90;;;;;;5093909;28;20431;-84
2022/05/24 13:03:23;;;;;;;0.70;0.30;;;19.20;99.90;;;;;;5093799;28;20436;-84
2022/05/24 13:05:54;;;;;;;0.40;0.30;;;19.20;98.60;;;;;;5094081;28;20525;-84
2022/05/24 13:08:22;;;;;;;0.40;0.30;;;19.20;99.10;;;;;;5094111;28;20444;-85
2022/05/24 13:10:49;;;;;;;0.30;0.30;;;19.30;99.90;;;;;;5094052;28;20451;-85
2022/05/24 13:13:19;;;;;;;0.40;0.30;;;19.40;99.90;;;;;;5093773;28;20994;-84
2022/05/24 13:15:50;;;;;;;0.30;0.30;;;19.50;99.90;;;;;;5093945;28;20965;-85
2022/05/24 13:18:19;;;;;;;0.40;0.40;;;19.40;99.90;;;;;;5094199;28;20464;-85
2022/05/24 13:20:50;;;;;;;0.30;0.27;;;19.40;99.70;;;;;;5093857;28;20451;-84
2022/05/24 13:23:36;;;;;;;0.47;0.47;;;19.40;99.10;;;;;;5094388;28;20440;-84
2022/05/24 13:26:14;;;;;;;0.40;0.40;;;19.40;99.30;;;;;;5094009;28;20836;-85
2022/05/24 13:28:44;;;;;;;0.40;0.30;;;19.40;99.30;;;;;;5093682;28;20927;-84
2022/05/24 13:34:01;;;;;;;0.40;0.30;;;19.30;98.80;;;;;;5093671;28;20816;-84
2022/05/24 13:36:30;;;;;;;0.30;0.30;;;19.40;99.30;;;;;;5093811;28;20479;-84
2022/05/24 13:39:20;;;;;;;0.30;0.30;;;19.50;98.70;;;;;;5093663;28;20448;-85
2022/05/24 13:41:55;;;;;;;0.37;0.30;;;19.60;98.70;;;;;;5093234;28;20479;-84
2022/05/24 13:44:28;;;;;;;0.30;0.30;;;19.60;98.10;;;;;;5093543;28;20420;-85
2022/05/24 13:47:07;;;;;;;0.30;0.30;;;19.60;97.90;;;;;;5094567;28;20489;-84
2022/05/24 13:49:38;;;;;;;0.30;0.30;;;19.70;99.40;;;;;;5093459;28;20434;-85
2022/05/24 13:52:21;;;;;;;0.70;0.37;;;19.80;99.90;;;;;;5092756;28;20483;-84